sensor_id;sensor_type;location;lat;lon;timestamp;pressure;altitude;pressure_sealevel;temperature;humidity
79707;BME280;69200;53.612;-2.416;2023-06-14T00:00:47;100196.06;;;17.03;48.61
79707;BME280;69200;53.612;-2.416;2023-06-14T00:03:14;100192.47;;;16.83;47.72
79707;BME280;69200;53.612;-2.416;2023-06-14T00:05:43;100186.72;;;16.74;47.44
79707;BME280;69200;53.612;-2.416;2023-06-14T00:08:09;100182.53;;;16.51;48.45
79707;BME280;69200;53.612;-2.416;2023-06-14T00:10:35;100185.81;;;16.43;51.35
79707;BME280;69200;53.612;-2.416;2023-06-14T00:13:02;100183.13;;;16.58;51.38
79707;BME280;69200;53.612;-2.416;2023-06-14T00:15:28;100181.47;;;16.47;50.42
79707;BME280;69200;53.612;-2.416;2023-06-14T00:17:53;100182.34;;;16.78;48.80
79707;BME280;69200;53.612;-2.416;2023-06-14T00:20:20;100184.28;;;16.93;49.17
79707;BME280;69200;53.612;-2.416;2023-06-14T00:22:46;100174.41;;;16.87;49.64
79707;BME280;69200;53.612;-2.416;2023-06-14T00:25:11;100179.56;;;16.58;49.00
79707;BME280;69200;53.612;-2.416;2023-06-14T00:27:36;100173.50;;;16.40;47.85
79707;BME280;69200;53.612;-2.416;2023-06-14T00:30:02;100179.06;;;16.86;48.66
79707;BME280;69200;53.612;-2.416;2023-06-14T00:32:27;100180.72;;;16.77;45.42
79707;BME280;69200;53.612;-2.416;2023-06-14T00:34:53;100183.44;;;16.97;53.97
79707;BME280;69200;53.612;-2.416;2023-06-14T00:37:18;100186.19;;;17.08;46.85
79707;BME280;69200;53.612;-2.416;2023-06-14T00:39:43;100180.41;;;17.19;49.59
79707;BME280;69200;53.612;-2.416;2023-06-14T00:42:09;100180.94;;;17.37;46.70
79707;BME280;69200;53.612;-2.416;2023-06-14T00:44:35;100188.28;;;17.61;47.49
79707;BME280;69200;53.612;-2.416;2023-06-14T00:47:00;100186.13;;;17.58;47.24
79707;BME280;69200;53.612;-2.416;2023-06-14T00:49:27;100180.66;;;18.23;56.28
79707;BME280;69200;53.612;-2.416;2023-06-14T00:51:53;100179.88;;;18.12;57.42
79707;BME280;69200;53.612;-2.416;2023-06-14T00:54:19;100175.47;;;18.16;45.01
79707;BME280;69200;53.612;-2.416;2023-06-14T00:56:44;100177.31;;;18.76;57.44
79707;BME280;69200;53.612;-2.416;2023-06-14T00:59:10;100182.63;;;18.62;59.94
79707;BME280;69200;53.612;-2.416;2023-06-14T01:01:36;100176.78;;;18.79;56.32
79707;BME280;69200;53.612;-2.416;2023-06-14T01:04:02;100177.75;;;17.99;54.07
79707;BME280;69200;53.612;-2.416;2023-06-14T01:06:48;100177.31;;;18.31;58.50
79707;BME280;69200;53.612;-2.416;2023-06-14T01:14:48;100179.03;;;18.22;57.50
79707;BME280;69200;53.612;-2.416;2023-06-14T01:17:15;100179.00;;;17.47;44.84
79707;BME280;69200;53.612;-2.416;2023-06-14T01:19:45;100180.91;;;17.52;50.46
79707;BME280;69200;53.612;-2.416;2023-06-14T01:22:11;100183.84;;;17.91;53.42
79707;BME280;69200;53.612;-2.416;2023-06-14T01:24:36;100186.66;;;17.71;49.89
79707;BME280;69200;53.612;-2.416;2023-06-14T01:27:05;100190.78;;;17.58;49.81
79707;BME280;69200;53.612;-2.416;2023-06-14T01:29:31;100187.28;;;17.22;49.27
79707;BME280;69200;53.612;-2.416;2023-06-14T01:32:01;100184.81;;;16.95;49.59
79707;BME280;69200;53.612;-2.416;2023-06-14T01:34:27;100192.47;;;17.23;55.67
79707;BME280;69200;53.612;-2.416;2023-06-14T01:36:53;100188.34;;;17.36;46.01
79707;BME280;69200;53.612;-2.416;2023-06-14T01:39:22;100188.94;;;17.02;47.20
79707;BME280;69200;53.612;-2.416;2023-06-14T01:41:49;100193.84;;;17.21;48.18
79707;BME280;69200;53.612;-2.416;2023-06-14T01:44:16;100192.78;;;17.01;49.90
79707;BME280;69200;53.612;-2.416;2023-06-14T01:46:42;100194.44;;;17.02;48.21
79707;BME280;69200;53.612;-2.416;2023-06-14T01:49:08;100188.34;;;16.65;43.77
79707;BME280;69200;53.612;-2.416;2023-06-14T01:51:34;100187.97;;;16.20;42.85
79707;BME280;69200;53.612;-2.416;2023-06-14T01:54:00;100189.22;;;15.92;49.19
79707;BME280;69200;53.612;-2.416;2023-06-14T01:56:26;100189.03;;;15.57;44.79
79707;BME280;69200;53.612;-2.416;2023-06-14T01:58:52;100188.13;;;15.41;44.38
79707;BME280;69200;53.612;-2.416;2023-06-14T02:01:19;100182.97;;;15.50;43.77
79707;BME280;69200;53.612;-2.416;2023-06-14T02:03:47;100182.94;;;15.07;44.64
79707;BME280;69200;53.612;-2.416;2023-06-14T02:06:13;100187.09;;;15.52;51.49
79707;BME280;69200;53.612;-2.416;2023-06-14T02:08:38;100187.94;;;15.58;45.78
79707;BME280;69200;53.612;-2.416;2023-06-14T02:11:04;100191.69;;;15.47;52.45
79707;BME280;69200;53.612;-2.416;2023-06-14T02:13:29;100199.75;;;16.21;59.49
79707;BME280;69200;53.612;-2.416;2023-06-14T02:15:55;100191.97;;;15.92;45.24
79707;BME280;69200;53.612;-2.416;2023-06-14T02:18:20;100195.31;;;15.15;51.20
79707;BME280;69200;53.612;-2.416;2023-06-14T02:20:47;100197.28;;;15.62;46.77
79707;BME280;69200;53.612;-2.416;2023-06-14T02:23:12;100196.50;;;15.72;53.38
79707;BME280;69200;53.612;-2.416;2023-06-14T02:25:37;100199.59;;;15.80;48.91
79707;BME280;69200;53.612;-2.416;2023-06-14T02:28:04;100201.72;;;16.51;58.41
79707;BME280;69200;53.612;-2.416;2023-06-14T02:30:30;100204.75;;;16.55;56.81
79707;BME280;69200;53.612;-2.416;2023-06-14T02:32:56;100196.00;;;16.68;54.96
79707;BME280;69200;53.612;-2.416;2023-06-14T02:35:22;100194.31;;;16.31;52.06
79707;BME280;69200;53.612;-2.416;2023-06-14T02:37:51;100198.50;;;15.81;62.30
79707;BME280;69200;53.612;-2.416;2023-06-14T02:40:17;100202.91;;;15.92;52.16
79707;BME280;69200;53.612;-2.416;2023-06-14T02:42:44;100200.84;;;16.25;53.94
79707;BME280;69200;53.612;-2.416;2023-06-14T02:45:09;100198.16;;;16.40;54.55
79707;BME280;69200;53.612;-2.416;2023-06-14T02:47:35;100188.66;;;15.80;50.49
79707;BME280;69200;53.612;-2.416;2023-06-14T02:50:01;100196.31;;;15.83;62.02
79707;BME280;69200;53.612;-2.416;2023-06-14T02:52:27;100199.41;;;15.55;51.64
79707;BME280;69200;53.612;-2.416;2023-06-14T02:54:53;100204.19;;;15.32;61.61
79707;BME280;69200;53.612;-2.416;2023-06-14T02:57:20;100193.81;;;15.77;62.94
79707;BME280;69200;53.612;-2.416;2023-06-14T02:59:45;100204.66;;;16.14;58.73
79707;BME280;69200;53.612;-2.416;2023-06-14T03:02:11;100193.59;;;15.93;61.07
79707;BME280;69200;53.612;-2.416;2023-06-14T03:04:36;100199.78;;;16.41;59.07
79707;BME280;69200;53.612;-2.416;2023-06-14T03:07:03;100198.53;;;16.80;60.08
79707;BME280;69200;53.612;-2.416;2023-06-14T03:09:35;100210.31;;;16.90;59.54
79707;BME280;69200;53.612;-2.416;2023-06-14T03:12:02;100207.31;;;16.76;57.23
79707;BME280;69200;53.612;-2.416;2023-06-14T03:14:28;100211.41;;;16.79;52.42
79707;BME280;69200;53.612;-2.416;2023-06-14T03:16:56;100211.59;;;16.52;57.94
79707;BME280;69200;53.612;-2.416;2023-06-14T03:19:22;100209.22;;;16.91;60.88
79707;BME280;69200;53.612;-2.416;2023-06-14T03:21:48;100207.50;;;16.55;57.96
79707;BME280;69200;53.612;-2.416;2023-06-14T03:24:14;100220.66;;;16.63;53.58
79707;BME280;69200;53.612;-2.416;2023-06-14T03:26:41;100219.25;;;16.50;57.40
79707;BME280;69200;53.612;-2.416;2023-06-14T03:29:07;100214.59;;;16.40;58.52
79707;BME280;69200;53.612;-2.416;2023-06-14T03:31:40;100213.91;;;16.03;53.00
79707;BME280;69200;53.612;-2.416;2023-06-14T03:34:06;100222.78;;;16.35;54.93
79707;BME280;69200;53.612;-2.416;2023-06-14T03:36:31;100222.91;;;16.81;63.21
79707;BME280;69200;53.612;-2.416;2023-06-14T03:38:58;100224.34;;;16.11;51.59
79707;BME280;69200;53.612;-2.416;2023-06-14T03:41:24;100209.69;;;15.80;63.04
79707;BME280;69200;53.612;-2.416;2023-06-14T03:43:50;100217.88;;;16.37;58.99
79707;BME280;69200;53.612;-2.416;2023-06-14T03:46:15;100218.56;;;16.02;54.39
79707;BME280;69200;53.612;-2.416;2023-06-14T03:48:41;100207.38;;;15.56;52.36
79707;BME280;69200;53.612;-2.416;2023-06-14T03:51:06;100210.66;;;15.16;51.06
79707;BME280;69200;53.612;-2.416;2023-06-14T03:53:31;100217.13;;;15.47;68.28
79707;BME280;69200;53.612;-2.416;2023-06-14T03:55:57;100221.66;;;15.26;52.67
79707;BME280;69200;53.612;-2.416;2023-06-14T03:58:23;100217.44;;;15.14;51.31
79707;BME280;69200;53.612;-2.416;2023-06-14T04:00:48;100223.06;;;14.70;51.87
79707;BME280;69200;53.612;-2.416;2023-06-14T04:03:13;100220.22;;;15.19;56.73
79707;BME280;69200;53.612;-2.416;2023-06-14T04:05:40;100220.03;;;16.35;61.60
79707;BME280;69200;53.612;-2.416;2023-06-14T04:08:07;100220.16;;;16.71;64.68
79707;BME280;69200;53.612;-2.416;2023-06-14T04:10:34;100221.19;;;15.39;52.43
79707;BME280;69200;53.612;-2.416;2023-06-14T04:13:00;100220.06;;;15.73;50.91
79707;BME280;69200;53.612;-2.416;2023-06-14T04:15:25;100232.28;;;14.42;52.08
79707;BME280;69200;53.612;-2.416;2023-06-14T04:17:53;100223.78;;;14.87;62.87
79707;BME280;69200;53.612;-2.416;2023-06-14T04:20:22;100217.88;;;16.42;61.96
79707;BME280;69200;53.612;-2.416;2023-06-14T04:22:49;100230.88;;;16.88;62.13
79707;BME280;69200;53.612;-2.416;2023-06-14T04:25:14;100229.78;;;16.94;56.06
79707;BME280;69200;53.612;-2.416;2023-06-14T04:27:40;100228.13;;;17.39;63.26
79707;BME280;69200;53.612;-2.416;2023-06-14T04:30:07;100232.16;;;17.97;54.60
79707;BME280;69200;53.612;-2.416;2023-06-14T04:32:33;100226.41;;;18.53;54.54
79707;BME280;69200;53.612;-2.416;2023-06-14T04:35:07;100228.19;;;19.75;51.90
79707;BME280;69200;53.612;-2.416;2023-06-14T04:37:34;100223.63;;;20.14;46.30
79707;BME280;69200;53.612;-2.416;2023-06-14T04:40:00;100220.28;;;20.35;45.34
79707;BME280;69200;53.612;-2.416;2023-06-14T04:42:25;100223.13;;;21.06;49.28
79707;BME280;69200;53.612;-2.416;2023-06-14T04:44:55;100240.41;;;21.30;47.47
79707;BME280;69200;53.612;-2.416;2023-06-14T04:47:21;100233.38;;;21.84;46.57
79707;BME280;69200;53.612;-2.416;2023-06-14T04:49:46;100239.97;;;23.02;38.87
79707;BME280;69200;53.612;-2.416;2023-06-14T04:52:12;100235.03;;;23.12;39.69
79707;BME280;69200;53.612;-2.416;2023-06-14T04:54:39;100232.09;;;23.17;38.22
79707;BME280;69200;53.612;-2.416;2023-06-14T04:57:06;100223.00;;;21.62;37.52
79707;BME280;69200;53.612;-2.416;2023-06-14T04:59:32;100228.47;;;23.31;35.12
79707;BME280;69200;53.612;-2.416;2023-06-14T05:02:01;100232.81;;;23.23;41.48
79707;BME280;69200;53.612;-2.416;2023-06-14T05:04:27;100236.03;;;24.67;36.98
79707;BME280;69200;53.612;-2.416;2023-06-14T05:06:53;100236.06;;;24.18;35.43
79707;BME280;69200;53.612;-2.416;2023-06-14T05:09:21;100243.97;;;23.94;37.26
79707;BME280;69200;53.612;-2.416;2023-06-14T05:11:47;100240.66;;;25.06;32.94
79707;BME280;69200;53.612;-2.416;2023-06-14T05:14:13;100237.34;;;24.78;35.02
79707;BME280;69200;53.612;-2.416;2023-06-14T05:16:39;100229.19;;;24.81;36.47
79707;BME280;69200;53.612;-2.416;2023-06-14T05:19:04;100237.38;;;25.21;37.65
79707;BME280;69200;53.612;-2.416;2023-06-14T05:21:30;100241.63;;;26.21;33.68
79707;BME280;69200;53.612;-2.416;2023-06-14T05:23:57;100239.16;;;25.08;28.99
79707;BME280;69200;53.612;-2.416;2023-06-14T05:26:22;100240.00;;;23.78;34.14
79707;BME280;69200;53.612;-2.416;2023-06-14T05:28:54;100233.59;;;23.46;32.32
79707;BME280;69200;53.612;-2.416;2023-06-14T05:31:22;100236.84;;;21.11;35.40
79707;BME280;69200;53.612;-2.416;2023-06-14T05:33:48;100240.09;;;21.78;34.67
79707;BME280;69200;53.612;-2.416;2023-06-14T05:36:13;100244.53;;;21.93;34.81
79707;BME280;69200;53.612;-2.416;2023-06-14T05:38:38;100243.63;;;21.18;36.03
79707;BME280;69200;53.612;-2.416;2023-06-14T05:41:04;100230.53;;;20.91;37.40
79707;BME280;69200;53.612;-2.416;2023-06-14T05:43:29;100242.72;;;22.66;33.76
79707;BME280;69200;53.612;-2.416;2023-06-14T05:45:55;100238.78;;;23.61;33.85
79707;BME280;69200;53.612;-2.416;2023-06-14T05:48:20;100241.03;;;22.92;35.70
79707;BME280;69200;53.612;-2.416;2023-06-14T05:50:46;100241.13;;;23.77;32.96
79707;BME280;69200;53.612;-2.416;2023-06-14T05:53:12;100234.47;;;24.26;34.73
79707;BME280;69200;53.612;-2.416;2023-06-14T05:55:37;100238.56;;;21.72;41.71
79707;BME280;69200;53.612;-2.416;2023-06-14T05:58:02;100238.09;;;22.39;35.69
79707;BME280;69200;53.612;-2.416;2023-06-14T06:00:28;100240.69;;;22.71;33.97
79707;BME280;69200;53.612;-2.416;2023-06-14T06:02:53;100243.44;;;23.07;33.82
79707;BME280;69200;53.612;-2.416;2023-06-14T06:05:22;100241.56;;;23.61;32.96
79707;BME280;69200;53.612;-2.416;2023-06-14T06:07:47;100245.59;;;23.86;33.39
79707;BME280;69200;53.612;-2.416;2023-06-14T06:10:13;100243.75;;;24.21;35.00
79707;BME280;69200;53.612;-2.416;2023-06-14T06:12:38;100243.13;;;23.31;35.21
79707;BME280;69200;53.612;-2.416;2023-06-14T06:15:04;100239.28;;;24.86;34.91
79707;BME280;69200;53.612;-2.416;2023-06-14T06:17:30;100249.28;;;22.70;38.98
79707;BME280;69200;53.612;-2.416;2023-06-14T06:19:55;100251.34;;;21.68;37.92
79707;BME280;69200;53.612;-2.416;2023-06-14T06:22:21;100236.63;;;22.55;36.53
79707;BME280;69200;53.612;-2.416;2023-06-14T06:24:46;100251.13;;;21.64;38.11
79707;BME280;69200;53.612;-2.416;2023-06-14T06:27:12;100252.16;;;21.68;37.96
79707;BME280;69200;53.612;-2.416;2023-06-14T06:29:38;100246.41;;;21.65;38.19
79707;BME280;69200;53.612;-2.416;2023-06-14T06:32:03;100231.53;;;21.93;39.64
79707;BME280;69200;53.612;-2.416;2023-06-14T06:34:29;100233.44;;;19.43;42.44
79707;BME280;69200;53.612;-2.416;2023-06-14T06:36:54;100237.69;;;21.25;39.26
79707;BME280;69200;53.612;-2.416;2023-06-14T06:39:20;100243.44;;;21.47;39.51
79707;BME280;69200;53.612;-2.416;2023-06-14T06:41:46;100240.31;;;21.68;38.01
79707;BME280;69200;53.612;-2.416;2023-06-14T06:44:11;100241.22;;;22.04;39.25
79707;BME280;69200;53.612;-2.416;2023-06-14T06:46:37;100244.47;;;21.00;38.67
79707;BME280;69200;53.612;-2.416;2023-06-14T06:49:05;100241.31;;;19.83;41.38
79707;BME280;69200;53.612;-2.416;2023-06-14T06:51:31;100242.13;;;20.08;41.13
79707;BME280;69200;53.612;-2.416;2023-06-14T06:53:56;100245.78;;;21.54;38.67
79707;BME280;69200;53.612;-2.416;2023-06-14T06:56:22;100247.47;;;21.96;38.23
79707;BME280;69200;53.612;-2.416;2023-06-14T06:58:49;100234.13;;;21.57;37.63
79707;BME280;69200;53.612;-2.416;2023-06-14T07:01:15;100241.19;;;20.98;39.34
79707;BME280;69200;53.612;-2.416;2023-06-14T07:03:41;100249.50;;;22.59;36.26
79707;BME280;69200;53.612;-2.416;2023-06-14T07:06:06;100239.84;;;23.29;35.41
79707;BME280;69200;53.612;-2.416;2023-06-14T07:08:32;100241.72;;;24.44;33.48
79707;BME280;69200;53.612;-2.416;2023-06-14T07:10:57;100236.22;;;21.33;38.33
79707;BME280;69200;53.612;-2.416;2023-06-14T07:13:22;100238.13;;;23.42;36.46
79707;BME280;69200;53.612;-2.416;2023-06-14T07:15:48;100238.81;;;21.43;37.35
79707;BME280;69200;53.612;-2.416;2023-06-14T07:18:13;100236.06;;;20.73;39.09
79707;BME280;69200;53.612;-2.416;2023-06-14T07:20:38;100259.41;;;20.61;38.79
79707;BME280;69200;53.612;-2.416;2023-06-14T07:23:05;100237.16;;;20.53;38.80
79707;BME280;69200;53.612;-2.416;2023-06-14T07:25:30;100243.34;;;21.53;39.66
79707;BME280;69200;53.612;-2.416;2023-06-14T07:27:56;100243.88;;;20.65;39.54
79707;BME280;69200;53.612;-2.416;2023-06-14T07:30:21;100240.44;;;20.92;39.41
79707;BME280;69200;53.612;-2.416;2023-06-14T07:32:51;100253.63;;;20.77;39.21
79707;BME280;69200;53.612;-2.416;2023-06-14T07:35:17;100248.03;;;20.20;40.48
79707;BME280;69200;53.612;-2.416;2023-06-14T07:37:42;100252.97;;;20.23;40.34
79707;BME280;69200;53.612;-2.416;2023-06-14T07:40:08;100253.72;;;19.81;41.65
79707;BME280;69200;53.612;-2.416;2023-06-14T07:42:35;100255.06;;;20.31;40.21
79707;BME280;69200;53.612;-2.416;2023-06-14T07:45:02;100247.63;;;20.93;39.65
79707;BME280;69200;53.612;-2.416;2023-06-14T07:47:27;100256.38;;;21.66;37.88
79707;BME280;69200;53.612;-2.416;2023-06-14T07:49:52;100254.41;;;20.82;39.27
79707;BME280;69200;53.612;-2.416;2023-06-14T07:52:18;100254.84;;;21.41;40.25
79707;BME280;69200;53.612;-2.416;2023-06-14T07:54:43;100252.22;;;22.10;36.88
79707;BME280;69200;53.612;-2.416;2023-06-14T07:57:09;100250.56;;;22.36;36.77
79707;BME280;69200;53.612;-2.416;2023-06-14T07:59:34;100248.13;;;20.15;40.09
79707;BME280;69200;53.612;-2.416;2023-06-14T08:02:00;100252.16;;;20.65;39.65
79707;BME280;69200;53.612;-2.416;2023-06-14T08:04:26;100250.06;;;20.57;38.88
79707;BME280;69200;53.612;-2.416;2023-06-14T08:06:51;100247.44;;;20.85;38.19
79707;BME280;69200;53.612;-2.416;2023-06-14T08:09:16;100254.19;;;21.63;37.24
79707;BME280;69200;53.612;-2.416;2023-06-14T08:11:42;100240.31;;;20.65;38.89
79707;BME280;69200;53.612;-2.416;2023-06-14T08:14:08;100240.22;;;20.27;38.91
79707;BME280;69200;53.612;-2.416;2023-06-14T08:16:33;100257.84;;;20.31;39.82
79707;BME280;69200;53.612;-2.416;2023-06-14T08:18:59;100257.97;;;20.64;38.29
79707;BME280;69200;53.612;-2.416;2023-06-14T08:21:24;100251.63;;;21.53;37.70
79707;BME280;69200;53.612;-2.416;2023-06-14T08:23:54;100264.81;;;21.42;38.10
79707;BME280;69200;53.612;-2.416;2023-06-14T08:26:20;100263.56;;;20.97;39.27
79707;BME280;69200;53.612;-2.416;2023-06-14T08:28:46;100261.72;;;20.30;38.56
79707;BME280;69200;53.612;-2.416;2023-06-14T08:31:11;100257.06;;;20.50;38.59
79707;BME280;69200;53.612;-2.416;2023-06-14T08:33:37;100259.66;;;20.60;37.66
79707;BME280;69200;53.612;-2.416;2023-06-14T08:36:04;100248.78;;;20.50;37.91
79707;BME280;69200;53.612;-2.416;2023-06-14T08:38:29;100242.47;;;20.49;38.52
79707;BME280;69200;53.612;-2.416;2023-06-14T08:40:57;100255.72;;;20.66;37.43
79707;BME280;69200;53.612;-2.416;2023-06-14T08:43:23;100265.41;;;21.01;37.33
79707;BME280;69200;53.612;-2.416;2023-06-14T08:45:53;100258.31;;;21.14;38.21
79707;BME280;69200;53.612;-2.416;2023-06-14T08:48:23;100261.72;;;20.30;38.74
79707;BME280;69200;53.612;-2.416;2023-06-14T08:50:52;100257.13;;;20.45;39.15
79707;BME280;69200;53.612;-2.416;2023-06-14T08:53:19;100249.38;;;20.84;38.05
79707;BME280;69200;53.612;-2.416;2023-06-14T08:55:46;100255.78;;;20.61;38.50
79707;BME280;69200;53.612;-2.416;2023-06-14T08:58:13;100249.94;;;21.84;37.71
79707;BME280;69200;53.612;-2.416;2023-06-14T09:00:40;100236.13;;;21.84;37.86
79707;BME280;69200;53.612;-2.416;2023-06-14T09:03:06;100253.38;;;21.62;37.23
79707;BME280;69200;53.612;-2.416;2023-06-14T09:05:39;100259.41;;;21.64;37.88
79707;BME280;69200;53.612;-2.416;2023-06-14T09:08:04;100254.66;;;21.18;38.01
79707;BME280;69200;53.612;-2.416;2023-06-14T09:10:31;100258.75;;;21.40;36.89
79707;BME280;69200;53.612;-2.416;2023-06-14T09:13:00;100260.00;;;21.47;37.12
79707;BME280;69200;53.612;-2.416;2023-06-14T09:15:26;100268.78;;;21.49;37.57
79707;BME280;69200;53.612;-2.416;2023-06-14T09:17:51;100259.78;;;21.90;36.42
79707;BME280;69200;53.612;-2.416;2023-06-14T09:20:17;100265.06;;;20.89;38.21
79707;BME280;69200;53.612;-2.416;2023-06-14T09:22:45;100263.22;;;21.17;37.62
79707;BME280;69200;53.612;-2.416;2023-06-14T09:25:11;100246.78;;;20.74;38.60
79707;BME280;69200;53.612;-2.416;2023-06-14T09:27:40;100274.41;;;21.44;37.61
79707;BME280;69200;53.612;-2.416;2023-06-14T09:30:09;100266.28;;;21.67;37.84
79707;BME280;69200;53.612;-2.416;2023-06-14T09:32:38;100276.66;;;21.42;37.10
79707;BME280;69200;53.612;-2.416;2023-06-14T09:35:07;100264.75;;;21.28;38.27
79707;BME280;69200;53.612;-2.416;2023-06-14T09:37:33;100266.09;;;21.77;36.78
79707;BME280;69200;53.612;-2.416;2023-06-14T09:39:59;100273.53;;;22.09;36.05
79707;BME280;69200;53.612;-2.416;2023-06-14T09:42:25;100266.59;;;21.33;37.02
79707;BME280;69200;53.612;-2.416;2023-06-14T09:44:54;100265.78;;;21.32;37.33
79707;BME280;69200;53.612;-2.416;2023-06-14T09:47:20;100268.47;;;21.37;37.34
79707;BME280;69200;53.612;-2.416;2023-06-14T09:49:46;100263.81;;;21.52;37.01
79707;BME280;69200;53.612;-2.416;2023-06-14T09:52:15;100272.50;;;22.19;37.02
79707;BME280;69200;53.612;-2.416;2023-06-14T09:54:42;100270.28;;;21.74;37.55
79707;BME280;69200;53.612;-2.416;2023-06-14T09:57:21;100270.69;;;21.68;36.64
79707;BME280;69200;53.612;-2.416;2023-06-14T09:59:48;100265.22;;;21.49;36.93
79707;BME280;69200;53.612;-2.416;2023-06-14T10:02:31;100271.72;;;21.39;37.09
79707;BME280;69200;53.612;-2.416;2023-06-14T10:05:05;100274.47;;;21.58;37.02
79707;BME280;69200;53.612;-2.416;2023-06-14T10:07:53;100272.63;;;21.81;37.81
79707;BME280;69200;53.612;-2.416;2023-06-14T10:10:20;100274.13;;;22.20;36.79
79707;BME280;69200;53.612;-2.416;2023-06-14T10:12:46;100268.00;;;22.23;37.71
79707;BME280;69200;53.612;-2.416;2023-06-14T10:15:18;100262.56;;;22.81;36.17
79707;BME280;69200;53.612;-2.416;2023-06-14T10:18:06;100262.47;;;22.09;36.79
79707;BME280;69200;53.612;-2.416;2023-06-14T10:21:13;100268.81;;;22.10;36.18
79707;BME280;69200;53.612;-2.416;2023-06-14T10:23:41;100263.25;;;21.82;36.30
79707;BME280;69200;53.612;-2.416;2023-06-14T10:26:08;100270.00;;;21.76;36.50
79707;BME280;69200;53.612;-2.416;2023-06-14T10:28:37;100259.34;;;21.83;35.95
79707;BME280;69200;53.612;-2.416;2023-06-14T10:31:12;100268.19;;;21.99;35.56
79707;BME280;69200;53.612;-2.416;2023-06-14T10:33:55;100250.31;;;21.50;36.39
79707;BME280;69200;53.612;-2.416;2023-06-14T10:36:26;100253.00;;;21.96;35.51
79707;BME280;69200;53.612;-2.416;2023-06-14T10:39:04;100257.72;;;21.82;36.71
79707;BME280;69200;53.612;-2.416;2023-06-14T10:41:30;100243.00;;;22.78;35.89
79707;BME280;69200;53.612;-2.416;2023-06-14T10:46:40;100238.91;;;22.12;37.09
79707;BME280;69200;53.612;-2.416;2023-06-14T10:49:06;100239.63;;;22.81;36.51
79707;BME280;69200;53.612;-2.416;2023-06-14T10:51:42;100233.38;;;22.39;35.39
79707;BME280;69200;53.612;-2.416;2023-06-14T10:54:20;100243.06;;;22.64;35.00
79707;BME280;69200;53.612;-2.416;2023-06-14T10:56:53;100238.91;;;22.12;36.00
79707;BME280;69200;53.612;-2.416;2023-06-14T10:59:20;100238.72;;;22.22;35.49
79707;BME280;69200;53.612;-2.416;2023-06-14T11:04:47;100226.28;;;21.78;35.12
79707;BME280;69200;53.612;-2.416;2023-06-14T11:08:37;100231.25;;;22.22;34.61
79707;BME280;69200;53.612;-2.416;2023-06-14T11:10:36;100219.25;;;22.27;35.43
79707;BME280;69200;53.612;-2.416;2023-06-14T11:13:06;100234.00;;;22.09;35.18
79707;BME280;69200;53.612;-2.416;2023-06-14T11:15:33;100236.34;;;22.79;34.08
79707;BME280;69200;53.612;-2.416;2023-06-14T11:18:06;100231.81;;;22.47;35.30
79707;BME280;69200;53.612;-2.416;2023-06-14T11:20:34;100231.59;;;22.57;35.23
79707;BME280;69200;53.612;-2.416;2023-06-14T11:23:00;100234.19;;;22.26;35.99
79707;BME280;69200;53.612;-2.416;2023-06-14T11:25:26;100242.66;;;22.93;35.01
79707;BME280;69200;53.612;-2.416;2023-06-14T11:27:53;100229.16;;;22.92;35.01
79707;BME280;69200;53.612;-2.416;2023-06-14T11:30:19;100240.66;;;22.85;33.81
79707;BME280;69200;53.612;-2.416;2023-06-14T11:32:49;100222.81;;;22.91;33.94
79707;BME280;69200;53.612;-2.416;2023-06-14T11:35:15;100224.38;;;23.28;32.98
79707;BME280;69200;53.612;-2.416;2023-06-14T11:37:41;100234.44;;;23.02;31.40
79707;BME280;69200;53.612;-2.416;2023-06-14T11:40:07;100224.94;;;22.44;32.57
79707;BME280;69200;53.612;-2.416;2023-06-14T11:42:35;100239.09;;;22.93;32.84
79707;BME280;69200;53.612;-2.416;2023-06-14T11:45:02;100235.16;;;22.71;33.65
79707;BME280;69200;53.612;-2.416;2023-06-14T11:47:35;100227.69;;;22.58;33.67
79707;BME280;69200;53.612;-2.416;2023-06-14T11:50:05;100235.19;;;23.16;32.54
79707;BME280;69200;53.612;-2.416;2023-06-14T11:52:31;100235.28;;;23.02;32.93
79707;BME280;69200;53.612;-2.416;2023-06-14T11:54:57;100217.31;;;23.00;32.87
79707;BME280;69200;53.612;-2.416;2023-06-14T11:57:24;100225.50;;;23.81;33.27
79707;BME280;69200;53.612;-2.416;2023-06-14T11:59:50;100219.81;;;23.86;31.44
79707;BME280;69200;53.612;-2.416;2023-06-14T12:02:17;100206.28;;;23.84;32.87
79707;BME280;69200;53.612;-2.416;2023-06-14T12:04:44;100214.03;;;23.42;32.50
79707;BME280;69200;53.612;-2.416;2023-06-14T12:07:10;100222.78;;;23.58;32.76
79707;BME280;69200;53.612;-2.416;2023-06-14T12:12:28;100219.25;;;23.44;31.99
79707;BME280;69200;53.612;-2.416;2023-06-14T12:14:55;100218.16;;;23.00;32.08
79707;BME280;69200;53.612;-2.416;2023-06-14T12:17:21;100227.09;;;23.20;31.63
79707;BME280;69200;53.612;-2.416;2023-06-14T12:19:48;100234.25;;;23.21;31.46
79707;BME280;69200;53.612;-2.416;2023-06-14T12:22:15;100225.94;;;22.98;32.59
79707;BME280;69200;53.612;-2.416;2023-06-14T12:24:44;100216.22;;;23.54;32.01
79707;BME280;69200;53.612;-2.416;2023-06-14T12:27:10;100216.16;;;23.45;31.33
79707;BME280;69200;53.612;-2.416;2023-06-14T12:29:41;100224.84;;;23.53;30.43
79707;BME280;69200;53.612;-2.416;2023-06-14T12:32:10;100222.09;;;23.30;31.47
79707;BME280;69200;53.612;-2.416;2023-06-14T12:34:35;100232.25;;;23.66;31.90
79707;BME280;69200;53.612;-2.416;2023-06-14T12:37:01;100211.66;;;23.89;30.42
79707;BME280;69200;53.612;-2.416;2023-06-14T12:39:28;100237.00;;;23.65;31.24
79707;BME280;69200;53.612;-2.416;2023-06-14T12:41:55;100212.69;;;23.62;31.53
79707;BME280;69200;53.612;-2.416;2023-06-14T12:44:20;100198.31;;;23.29;32.11
79707;BME280;69200;53.612;-2.416;2023-06-14T12:46:45;100209.22;;;23.88;32.10
79707;BME280;69200;53.612;-2.416;2023-06-14T12:49:12;100222.25;;;23.87;31.49
79707;BME280;69200;53.612;-2.416;2023-06-14T12:51:38;100213.91;;;23.79;30.71
79707;BME280;69200;53.612;-2.416;2023-06-14T12:54:04;100221.13;;;23.88;31.68